Latest Weather Observations for Croker Island Airport

IDD60801

Issued at 2:01 pm CST Tuesday 17 January 2017 (issued every 30 minutes, with the page automatically refreshed every 10 minutes)

About weather observations | Map of weather stations | Latest weather observations for NT | Other Formats
Station Details ID: 014308 Name: CROKER ISLAND AIRPORT Lat: -11.16 Lon: 132.48 Height: 9.2 m
Data from the previous 72 hours. | See also: Recent months at Croker Island Airport
Date/Time
CST
Temp
°C
App
Temp
°C
Dew
Point
°C
Rel
Hum
%
Delta-T
°C
Wind Press
QNH
hPa
Press
MSL
hPa
Rain since
9am
mm
Dir  Spd
km/h
Gust
km/h
Spd
kts
Gust
kts
17/02:00pm 31.4 33.8 24.3 66 5.0 N 19 24 10 13 1008.4 1008.3 0.0
17/01:30pm 32.7 36.8 25.2 64 5.3 NNW 13 19 7 10 1008.7 1008.6 0.0
17/01:00pm 33.0 37.9 25.8 66 5.1 NNW 11 19 6 10 1008.5 1008.4 0.0
17/12:30pm 31.9 36.3 25.0 67 4.9 NW 11 17 6 9 1009.0 1008.9 0.0
17/12:00pm 32.3 37.3 25.4 67 4.9 NW 9 13 5 7 1009.0 1008.9 0.0
17/11:30am 32.0 37.5 25.6 69 4.6 NW 7 13 4 7 1009.2 1009.1 0.0
17/11:00am 31.3 36.6 24.9 69 4.5 NW 6 9 3 5 1009.5 1009.4 0.0
17/10:30am 31.0 36.4 25.1 71 4.2 WSW 6 9 3 5 1009.9 1009.8 0.0
17/10:00am 30.9 36.2 25.0 71 4.2 WSW 6 7 3 4 1009.9 1009.8 0.0
17/09:30am 30.6 36.1 24.7 71 4.1 SW 4 7 2 4 1010.2 1010.1 0.0
17/09:00am 30.4 35.4 24.5 70 4.1 WSW 6 7 3 4 1010.3 1010.2 3.4
17/08:30am 30.0 35.8 25.1 75 3.5 SW 4 6 2 3 1010.1 1010.0 3.2
17/08:00am 29.1 34.7 24.9 78 2.9 SSW 4 6 2 3 1009.7 1009.6 3.2
17/07:30am 28.3 33.3 24.5 80 2.6 SSW 6 9 3 5 1009.2 1009.1 3.2
17/07:00am 28.1 33.0 24.3 80 2.6 SW 6 9 3 5 1008.6 1008.5 3.2
17/06:30am 28.1 32.4 24.3 80 2.6 WSW 9 11 5 6 1008.1 1008.0 3.2
17/06:00am 28.1 32.3 24.1 79 2.8 WSW 9 13 5 7 1007.9 1007.8 3.2
17/05:30am 28.1 32.0 24.3 80 2.6 WSW 11 13 6 7 1007.3 1007.2 3.2
17/05:00am 28.0 31.9 24.2 80 2.6 WSW 11 15 6 8 1007.0 1006.9 3.2
17/04:30am 28.1 32.0 24.3 80 2.6 WSW 11 15 6 8 1006.7 1006.6 3.2
17/04:00am 28.2 32.3 24.6 81 2.5 WSW 11 15 6 8 1006.8 1006.7 3.2
17/03:30am 28.4 32.9 24.6 80 2.7 WSW 9 13 5 7 1006.8 1006.7 3.2
17/03:00am 28.3 32.7 24.5 80 2.6 WSW 9 13 5 7 1006.9 1006.8 3.2
17/02:30am 28.3 33.0 24.9 82 2.4 WSW 9 13 5 7 1007.1 1007.0 3.2
17/02:00am 27.8 31.8 24.4 82 2.4 SSW 11 17 6 9 1007.5 1007.4 3.2
17/01:30am 27.2 28.7 23.0 78 2.9 WSW 20 26 11 14 1007.8 1007.7 3.2
17/01:00am 27.3 31.8 24.0 82 2.3 WSW 7 13 4 7 1007.8 1007.7 3.2
17/12:30am 26.8 29.5 23.5 82 2.3 W 15 22 8 12 1007.8 1007.7 3.0
17/12:00am 28.7 34.0 24.9 80 2.7 W 6 7 3 4 1008.1 1008.0 0.0
 
Date/Time
CST
Temp
°C
App
Temp
°C
Dew
Point
°C
Rel
Hum
%
Delta-T
°C
Wind Press
QNH
hPa
Press
MSL
hPa
Rain since
9am
mm
Dir  Spd
km/h
Gust
km/h
Spd
kts
Gust
kts
16/11:30pm 28.3 33.2 24.3 79 2.8 NW 6 9 3 5 1008.2 1008.1 0.0
16/11:00pm 27.9 32.7 24.1 80 2.6 NNW 6 7 3 4 1008.2 1008.1 0.0
16/10:30pm 27.3 32.9 23.5 80 2.6 CALM 0 0 0 0 1008.0 1007.9 0.0
16/10:00pm 27.9 32.7 23.5 77 3.0 S 4 6 2 3 1007.8 1007.7 0.0
16/09:30pm 28.4 33.0 23.8 76 3.2 SSW 6 9 3 5 1007.8 1007.7 0.0
16/09:00pm 28.9 34.1 24.2 76 3.3 W 4 6 2 3 1007.9 1007.8 0.0
16/08:30pm 29.0 34.3 24.3 76 3.3 WSW 4 6 2 3 1008.0 1007.9 0.0
16/08:00pm 29.2 34.2 24.5 76 3.3 WSW 6 9 3 5 1008.1 1008.0 0.0
16/07:30pm 29.4 33.8 24.5 75 3.4 SW 9 13 5 7 1007.8 1007.7 0.0
16/07:00pm 29.6 32.9 24.5 74 3.6 W 15 19 8 10 1007.5 1007.4 0.0
16/06:30pm 29.8 33.0 24.4 73 3.8 W 15 20 8 11 1007.3 1007.2 0.0
16/06:00pm 29.8 32.8 24.7 74 3.6 W 17 24 9 13 1007.0 1006.9 0.0
16/05:30pm 30.1 32.8 24.7 73 3.8 W 19 26 10 14 1006.4 1006.3 0.0
16/05:00pm 30.0 32.4 24.2 71 4.0 WNW 19 26 10 14 1006.0 1005.9 0.0
16/04:30pm 30.0 32.9 23.9 70 4.2 WNW 15 20 8 11 1005.8 1005.7 0.0
16/04:00pm 30.2 34.3 24.6 72 3.9 W 11 19 6 10 1005.9 1005.8 0.0
16/03:30pm 29.4 31.3 23.4 70 4.1 W 19 30 10 16 1006.2 1006.1 0.0
16/03:00pm 30.3 33.9 23.7 68 4.6 WNW 11 19 6 10 1006.4 1006.3 0.0
16/02:30pm 30.4 35.2 24.5 70 4.1 WSW 7 13 4 7 1006.8 1006.7 0.0
16/02:00pm 29.3 31.6 23.5 71 4.0 WSW 17 22 9 12 1007.1 1007.0 0.0
16/01:30pm 30.2 33.6 24.6 72 3.9 WNW 15 20 8 11 1007.5 1007.4 0.0
16/01:00pm 31.5 35.1 24.4 66 5.0 WNW 13 20 7 11 1007.7 1007.6 0.0
16/12:30pm 31.8 34.8 24.7 66 5.0 WNW 17 20 9 11 1008.1 1008.0 0.0
16/12:00pm 32.0 35.7 24.6 65 5.2 WNW 13 20 7 11 1008.5 1008.4 0.0
16/11:30am 31.4 34.7 24.5 67 4.8 WNW 15 22 8 12 1008.8 1008.7 0.0
16/11:00am 30.9 34.6 24.5 68 4.5 WNW 13 19 7 10 1009.0 1008.9 0.0
16/10:30am 30.9 35.1 24.8 70 4.3 WNW 11 19 6 10 1009.0 1008.9 0.0
16/10:00am 30.8 35.4 25.4 73 3.8 WNW 11 17 6 9 1009.0 1008.9 0.0
16/09:30am 30.5 34.9 25.1 73 3.8 WNW 11 19 6 10 1009.0 1008.9 0.0
16/09:00am 29.8 34.5 24.9 75 3.4 WNW 9 13 5 7 1008.9 1008.8 0.0
16/08:30am 29.4 34.9 25.6 80 2.7 WSW 7 11 4 6 1008.7 1008.6 0.0
16/08:00am 29.0 34.4 25.4 81 2.5 W 7 11 4 6 1008.5 1008.4 0.0
16/07:30am 28.7 33.9 25.1 81 2.5 W 7 11 4 6 1008.1 1008.0 0.0
16/07:00am 28.6 33.7 25.0 81 2.5 WSW 7 11 4 6 1007.8 1007.7 0.0
16/06:30am 28.7 33.4 24.3 77 3.1 WNW 7 13 4 7 1007.9 1007.8 0.0
16/06:00am 28.8 33.0 24.1 76 3.3 WNW 9 13 5 7 1007.4 1007.3 0.0
16/05:30am 28.9 32.3 24.0 75 3.4 WNW 13 17 7 9 1007.1 1007.0 0.0
16/05:00am 28.8 32.9 24.6 78 2.9 WNW 11 19 6 10 1006.8 1006.7 0.0
16/04:30am 28.7 32.6 24.3 77 3.1 WNW 11 15 6 8 1006.7 1006.6 0.0
16/04:00am 28.6 32.5 24.2 77 3.1 WNW 11 17 6 9 1006.6 1006.5 0.0
16/03:30am 28.8 32.9 24.6 78 2.9 WNW 11 19 6 10 1006.7 1006.6 0.0
16/03:00am 28.6 32.2 24.4 78 2.9 NW 13 17 7 9 1006.8 1006.7 0.0
16/02:30am 28.5 32.7 24.1 77 3.1 NW 9 15 5 8 1006.8 1006.7 0.0
16/02:00am 28.6 32.5 24.2 77 3.1 WNW 11 19 6 10 1006.6 1006.5 0.0
16/01:30am 28.5 32.7 24.1 77 3.1 NW 9 19 5 10 1006.7 1006.6 0.0
16/01:00am 28.6 32.5 24.2 77 3.1 NW 11 17 6 9 1007.0 1006.9 0.0
16/12:30am 28.8 33.2 24.4 77 3.1 WNW 9 17 5 9 1007.4 1007.3 0.0
16/12:00am 28.7 33.1 24.5 78 2.9 WNW 9 17 5 9 1007.8 1007.7 0.0
 
Date/Time
CST
Temp
°C
App
Temp
°C
Dew
Point
°C
Rel
Hum
%
Delta-T
°C
Wind Press
QNH
hPa
Press
MSL
hPa
Rain since
9am
mm
Dir  Spd
km/h
Gust
km/h
Spd
kts
Gust
kts
15/11:30pm 28.7 33.1 24.5 78 2.9 NW 9 15 5 8 1008.0 1007.9 0.0
15/11:00pm 28.4 33.0 24.2 78 2.9 NW 7 11 4 6 1008.2 1008.1 0.0
15/10:30pm 28.3 32.9 24.1 78 2.9 NW 7 11 4 6 1008.2 1008.1 0.0
15/10:00pm 28.1 32.6 23.9 78 2.9 NW 7 9 4 5 1008.0 1007.9 0.0
15/09:30pm 28.0 32.4 23.4 76 3.2 NW 6 9 3 5 1008.0 1007.9 0.0
15/09:00pm 28.2 32.7 23.6 76 3.2 NW 6 9 3 5 1007.8 1007.7 0.0
15/08:30pm 28.5 33.0 23.6 75 3.4 NNW 6 9 3 5 1007.5 1007.4 0.0
15/08:00pm 28.6 32.8 23.5 74 3.5 NW 7 9 4 5 1007.4 1007.3 0.0
15/07:30pm 28.9 33.3 23.8 74 3.5 NW 7 13 4 7 1007.4 1007.3 0.0
15/07:00pm 29.1 33.5 23.8 73 3.7 NW 7 13 4 7 1007.3 1007.2 0.0
15/06:30pm 29.5 33.6 23.9 72 3.9 NW 9 17 5 9 1007.2 1007.1 0.0
15/06:00pm 30.1 34.2 24.0 70 4.2 WNW 9 15 5 8 1007.1 1007.0 0.0
15/05:30pm 30.9 35.2 24.3 68 4.6 NW 9 13 5 7 1006.8 1006.7 0.0
15/05:00pm 30.6 34.9 24.3 69 4.4 NW 9 13 5 7 1006.6 1006.5 0.0
15/04:30pm 31.3 36.0 24.9 69 4.5 WNW 9 13 5 7 1006.7 1006.6 0.0
15/04:00pm 30.8 35.7 24.7 70 4.3 WSW 7 15 4 8 1006.8 1006.7 0.0
15/03:30pm 30.6 35.0 25.0 72 3.9 W 11 17 6 9 1007.1 1007.0 0.0
15/03:00pm 31.0 35.6 25.4 72 4.0 NW 11 17 6 9 1007.5 1007.4 0.0
15/02:30pm 31.4 36.1 25.5 71 4.2 NW 11 17 6 9 1008.1 1008.0 0.0
15/02:00pm 32.5 36.6 25.8 68 4.8 NW 15 22 8 12 1008.2 1008.1 0.0
15/01:30pm 32.1 36.9 26.2 71 4.2 NW 13 19 7 10 1008.4 1008.3 0.0
15/01:00pm 32.3 37.3 26.6 72 4.1 NW 13 19 7 10 1008.8 1008.7 0.0
15/12:30pm 32.3 38.2 26.8 73 4.0 NW 9 15 5 8 1009.0 1008.9 0.0
15/12:00pm 32.2 37.9 26.5 72 4.1 NW 9 15 5 8 1009.3 1009.2 0.0
15/11:30am 31.8 36.5 24.9 67 4.9 NW 9 17 5 9 1009.6 1009.5 0.0
15/11:00am 31.9 37.0 25.0 67 4.9 WNW 7 11 4 6 1009.7 1009.6 0.0
15/10:30am 31.3 36.7 25.2 70 4.3 WNW 6 9 3 5 1010.0 1009.9 0.0
15/10:00am 31.5 37.2 25.6 71 4.2 WSW 6 7 3 4 1010.3 1010.2 0.0
15/09:30am 30.9 36.4 25.3 72 4.0 SW 6 7 3 4 1010.3 1010.2 0.0
15/09:00am 30.5 35.6 24.9 72 3.9 WSW 7 9 4 5 1010.5 1010.4 -
15/08:30am 30.3 35.4 24.7 72 3.9 WSW 6 7 3 4 1010.3 1010.2 -
15/08:00am 30.0 35.6 24.9 74 3.6 W 4 7 2 4 1010.2 1010.1 -
15/07:30am 28.8 33.7 24.4 77 3.1 W 6 7 3 4 1010.1 1010.0 -
15/07:00am 28.0 33.0 23.8 78 2.9 WNW 4 7 2 4 1009.7 1009.6 -
15/06:30am 28.1 32.6 23.9 78 2.9 WNW 7 11 4 6 1009.3 1009.2 -
15/06:00am 28.0 32.6 23.8 78 2.9 NW 6 11 3 6 1009.1 1009.0 -
15/05:30am 28.2 32.8 23.8 77 3.0 WNW 6 7 3 4 1008.5 1008.4 -
15/05:00am 28.2 32.7 24.0 78 2.9 NW 7 9 4 5 1008.3 1008.2 -
15/04:30am 28.1 32.4 23.7 77 3.0 NW 7 9 4 5 1007.9 1007.8 -
15/04:00am 28.2 32.6 23.8 77 3.0 NW 7 13 4 7 1007.6 1007.5 -
15/03:30am 28.2 32.2 23.8 77 3.0 NW 9 13 5 7 1007.7 1007.6 -
15/03:00am 28.3 31.9 23.7 76 3.2 NW 11 17 6 9 1007.7 1007.6 -
15/02:30am 28.2 32.1 23.6 76 3.2 NW 9 15 5 8 1007.6 1007.5 -
15/02:00am 28.3 32.4 23.9 77 3.0 NW 9 15 5 8 1007.9 1007.8 -
15/01:30am 28.3 32.3 23.7 76 3.2 NW 9 15 5 8 1008.1 1008.0 -
15/01:00am 28.4 32.5 24.0 77 3.0 NNW 9 15 5 8 1008.5 1008.4 -
15/12:30am 28.1 32.3 23.5 76 3.2 NNW 7 13 4 7 1009.0 1008.9 -
15/12:00am 28.1 32.3 23.5 76 3.2 NNW 7 11 4 6 1009.3 1009.2 -
 
Date/Time
CST
Temp
°C
App
Temp
°C
Dew
Point
°C
Rel
Hum
%
Delta-T
°C
Wind Press
QNH
hPa
Press
MSL
hPa
Rain since
9am
mm
Dir  Spd
km/h
Gust
km/h
Spd
kts
Gust
kts
14/11:30pm 28.3 32.6 23.7 76 3.2 NNW 7 13 4 7 1009.7 1009.6 -
14/11:00pm 28.4 32.2 23.5 75 3.4 NNW 9 15 5 8 1009.7 1009.6 -
14/10:30pm 28.5 32.4 23.6 75 3.4 NNW 9 15 5 8 1009.8 1009.7 -
14/10:00pm 28.5 32.7 23.4 74 3.5 NNW 7 13 4 7 1009.5 1009.4 0.0
14/09:30pm 28.5 32.8 23.6 75 3.4 N 7 11 4 6 1009.4 1009.3 0.0
14/09:00pm 28.6 32.6 23.7 75 3.4 N 9 15 5 8 1009.1 1009.0 0.0
14/08:30pm 28.7 32.6 23.6 74 3.5 N 9 11 5 6 1008.9 1008.8 0.0
14/08:00pm 28.8 32.8 23.7 74 3.5 N 9 15 5 8 1008.3 1008.2 0.0
14/07:30pm 29.0 32.4 23.4 72 3.9 N 11 15 6 8 1007.9 1007.8 0.0
14/07:00pm 29.2 32.7 23.6 72 3.9 NNW 11 17 6 9 1007.6 1007.5 0.0
14/06:30pm 29.9 33.2 23.8 70 4.2 NNW 13 19 7 10 1007.3 1007.2 0.0
14/06:00pm 29.8 33.2 24.0 71 4.0 N 13 20 7 11 1007.2 1007.1 0.0
14/05:30pm 29.8 32.6 23.0 67 4.7 NNW 13 20 7 11 1007.0 1006.9 0.0
14/05:00pm 31.0 34.1 23.6 64 5.1 NNW 13 22 7 12 1006.7 1006.6 0.0
14/04:30pm 31.5 34.6 23.6 63 5.5 NNW 13 19 7 10 1007.0 1006.9 0.0
14/04:00pm 32.0 35.2 24.3 63 5.4 NNW 15 22 8 12 1007.0 1006.9 0.0
14/03:30pm 32.3 35.4 24.1 62 5.7 NNW 15 22 8 12 1007.0 1006.9 0.0
14/03:00pm 32.4 35.6 24.4 62 5.6 NNW 15 22 8 12 1007.5 1007.4 0.0
14/02:30pm 32.6 36.1 24.9 64 5.4 NNW 15 24 8 13 1007.8 1007.7 0.0

Other Formats:

Comma delimited format used in spreadsheet applications
http://www.bom.gov.au/fwo/IDD60801/IDD60801.94108.axf

JavaScript Object Notation format (JSON) in row-major order
http://www.bom.gov.au/fwo/IDD60801/IDD60801.94108.json